createdAt,value
2022-10-05T00:00:28.521Z,5.50
2022-10-05T00:02:56.560Z,6.57
2022-10-05T00:05:28.423Z,6.45
2022-10-05T00:07:57.490Z,6.30
2022-10-05T00:10:24.914Z,5.20
2022-10-05T00:12:52.196Z,6.10
2022-10-05T00:15:20.386Z,5.78
2022-10-05T00:17:47.652Z,5.80
2022-10-05T00:20:23.059Z,5.53
2022-10-05T00:22:51.728Z,5.78
2022-10-05T00:25:21.078Z,4.68
2022-10-05T00:28:08.544Z,5.70
2022-10-05T00:30:35.933Z,4.45
2022-10-05T00:33:03.123Z,4.60
2022-10-05T00:35:31.582Z,5.78
2022-10-05T00:37:58.780Z,5.93
2022-10-05T00:40:26.012Z,4.93
2022-10-05T00:43:04.027Z,5.78
2022-10-05T00:45:36.675Z,6.05
2022-10-05T00:48:03.870Z,5.18
2022-10-05T00:50:36.938Z,5.07
2022-10-05T00:53:04.120Z,5.05
2022-10-05T00:55:31.341Z,5.30
2022-10-05T00:58:07.706Z,4.90
2022-10-05T01:00:39.766Z,5.05
2022-10-05T01:03:20.792Z,5.00
2022-10-05T01:06:06.485Z,5.38
2022-10-05T01:08:36.679Z,5.05
2022-10-05T01:11:22.730Z,5.43
2022-10-05T01:14:03.269Z,5.32
2022-10-05T01:16:33.683Z,6.60
2022-10-05T01:19:19.429Z,6.07
2022-10-05T01:21:57.940Z,6.25
2022-10-05T01:24:38.016Z,6.97
2022-10-05T01:27:22.528Z,5.40
2022-10-05T01:29:52.842Z,5.47
2022-10-05T01:32:20.060Z,5.57
2022-10-05T01:34:57.949Z,6.13
2022-10-05T01:37:30.989Z,5.35
2022-10-05T01:39:58.166Z,6.07
2022-10-05T01:42:31.488Z,6.32
2022-10-05T01:45:04.710Z,5.33
2022-10-05T01:47:40.847Z,5.25
2022-10-05T01:50:26.635Z,6.18
2022-10-05T01:53:08.809Z,5.70
2022-10-05T01:55:40.149Z,5.80
2022-10-05T01:58:11.005Z,5.68
2022-10-05T02:00:46.407Z,7.38
2022-10-05T02:03:19.451Z,6.40
2022-10-05T02:05:57.126Z,6.10
2022-10-05T02:08:38.733Z,6.35
2022-10-05T02:11:10.166Z,6.32
2022-10-05T02:13:40.793Z,6.70
2022-10-05T02:16:11.211Z,6.40
2022-10-05T02:18:42.139Z,6.28
2022-10-05T02:21:09.636Z,6.05
2022-10-05T02:23:38.686Z,6.18
2022-10-05T02:26:07.328Z,6.57
2022-10-05T02:28:40.896Z,7.05
2022-10-05T02:31:10.494Z,6.78
2022-10-05T02:33:38.083Z,7.45
2022-10-05T02:36:25.560Z,7.40
2022-10-05T02:39:17.805Z,6.45
2022-10-05T02:42:23.595Z,6.53
2022-10-05T02:44:57.182Z,6.55
2022-10-05T02:47:29.871Z,7.55
2022-10-05T02:50:12.171Z,7.30
2022-10-05T02:52:48.501Z,7.40
2022-10-05T02:55:20.027Z,7.40
2022-10-05T02:57:55.793Z,7.07
2022-10-05T03:00:24.791Z,7.53
2022-10-05T03:03:09.712Z,7.28
2022-10-05T03:05:40.039Z,6.70
2022-10-05T03:08:10.035Z,7.05
2022-10-05T03:10:40.024Z,7.20
2022-10-05T03:13:26.313Z,6.97
2022-10-05T03:16:17.155Z,8.27
2022-10-05T03:19:06.037Z,7.00
2022-10-05T03:21:33.417Z,6.93
2022-10-05T03:24:06.625Z,6.93
2022-10-05T03:26:33.858Z,7.45
2022-10-05T03:29:05.384Z,7.50
2022-10-05T03:31:47.732Z,7.10
2022-10-05T03:34:17.633Z,7.38
2022-10-05T03:36:48.033Z,6.60
2022-10-05T03:39:44.665Z,6.65
2022-10-05T03:42:30.278Z,7.05
2022-10-05T03:45:05.254Z,6.45
2022-10-05T03:48:01.917Z,7.10
2022-10-05T03:50:43.346Z,6.78
2022-10-05T03:53:13.577Z,7.35
2022-10-05T03:55:43.172Z,8.40
2022-10-05T03:58:15.730Z,7.53
2022-10-05T04:00:45.600Z,7.95
2022-10-05T04:03:15.985Z,7.95
2022-10-05T04:06:12.548Z,7.50
2022-10-05T04:08:42.137Z,7.40
2022-10-05T04:11:18.346Z,7.45
2022-10-05T04:14:04.139Z,7.68
2022-10-05T04:16:51.594Z,7.40
2022-10-05T04:19:28.931Z,7.07
2022-10-05T04:22:00.288Z,7.60
2022-10-05T04:24:33.716Z,7.53
2022-10-05T04:27:02.300Z,7.50
2022-10-05T04:29:32.371Z,7.70
2022-10-05T04:32:18.470Z,7.90
2022-10-05T04:34:54.450Z,7.65
2022-10-05T04:37:32.530Z,6.97
2022-10-05T04:40:10.945Z,6.35
2022-10-05T04:42:43.648Z,7.25
2022-10-05T04:45:10.929Z,7.38
2022-10-05T04:47:55.619Z,7.07
2022-10-05T04:50:38.219Z,7.20
2022-10-05T04:53:24.602Z,7.25
2022-10-05T04:55:59.158Z,6.78
2022-10-05T04:58:53.605Z,6.70
2022-10-05T05:01:31.068Z,7.60
2022-10-05T05:03:58.297Z,6.82
2022-10-05T05:06:25.585Z,6.35
2022-10-05T05:09:02.592Z,7.45
2022-10-05T05:11:34.349Z,6.32
2022-10-05T05:14:01.556Z,6.10
2022-10-05T05:16:35.120Z,5.78
2022-10-05T05:19:02.340Z,6.20
2022-10-05T05:21:36.052Z,5.55
2022-10-05T05:24:12.453Z,5.28
2022-10-05T05:26:39.673Z,5.15
2022-10-05T05:29:25.334Z,5.78
2022-10-05T05:32:01.866Z,7.25
2022-10-05T05:34:31.829Z,6.32
2022-10-05T05:37:07.876Z,6.38
2022-10-05T05:39:41.424Z,6.93
2022-10-05T05:42:17.999Z,6.85
2022-10-05T05:44:50.592Z,8.88
2022-10-05T05:47:21.048Z,8.27
2022-10-05T05:49:57.524Z,8.32
2022-10-05T05:52:27.458Z,7.82
2022-10-05T05:55:00.200Z,6.97
2022-10-05T05:57:27.498Z,7.40
2022-10-05T06:00:05.546Z,7.30
2022-10-05T06:02:38.887Z,7.22
2022-10-05T06:05:16.867Z,7.50
2022-10-05T06:07:44.169Z,7.35
2022-10-05T06:10:14.480Z,7.90
2022-10-05T06:12:48.191Z,8.23
2022-10-05T06:15:26.944Z,8.43
2022-10-05T06:17:56.862Z,8.23
2022-10-05T06:20:29.373Z,7.57
2022-10-05T06:23:00.283Z,5.88
2022-10-05T06:25:36.255Z,6.18
2022-10-05T06:28:13.658Z,6.40
2022-10-05T06:30:40.895Z,6.15
2022-10-05T06:33:17.404Z,7.38
2022-10-05T06:35:50.605Z,6.80
2022-10-05T06:38:17.829Z,6.32
2022-10-05T06:40:57.782Z,6.38
2022-10-05T06:43:44.030Z,6.28
2022-10-05T06:46:15.050Z,5.32
2022-10-05T06:48:42.360Z,5.72
2022-10-05T06:51:16.988Z,5.28
2022-10-05T06:54:04.610Z,5.47
2022-10-05T06:56:35.900Z,6.13
2022-10-05T06:59:03.950Z,5.38
2022-10-05T07:02:04.011Z,6.40
2022-10-05T07:04:49.842Z,4.72
2022-10-05T07:07:20.117Z,4.22
2022-10-05T07:09:50.176Z,4.47
2022-10-05T07:12:26.790Z,4.25
2022-10-05T07:15:12.648Z,4.00
2022-10-05T07:17:44.354Z,3.08
2022-10-05T07:20:14.593Z,2.83
2022-10-05T07:22:41.774Z,3.08
2022-10-05T07:25:08.966Z,3.15
2022-10-05T07:27:39.487Z,2.70
2022-10-05T07:30:14.996Z,2.83
2022-10-05T07:32:59.714Z,2.45
2022-10-05T07:36:11.958Z,2.65
2022-10-05T07:38:58.025Z,2.83
2022-10-05T07:41:37.493Z,2.42
2022-10-05T07:44:12.988Z,2.92
2022-10-05T07:46:46.857Z,2.33
2022-10-05T07:49:32.415Z,2.47
2022-10-05T07:52:06.166Z,2.33
2022-10-05T07:54:33.355Z,2.10
2022-10-05T07:57:15.499Z,2.40
2022-10-05T07:59:45.669Z,2.55
2022-10-05T08:02:16.010Z,2.38
2022-10-05T08:04:51.984Z,2.40
2022-10-05T08:07:19.363Z,2.13
2022-10-05T08:09:51.931Z,2.22
2022-10-05T08:12:25.248Z,2.15
2022-10-05T08:14:57.051Z,2.30
2022-10-05T08:17:44.544Z,2.22
2022-10-05T08:20:30.461Z,2.22
2022-10-05T08:23:09.978Z,2.67
2022-10-05T08:25:37.154Z,2.33
2022-10-05T08:28:09.297Z,2.30
2022-10-05T08:30:40.232Z,2.10
2022-10-05T08:33:10.746Z,2.35
2022-10-05T08:35:45.329Z,2.03
2022-10-05T08:38:16.776Z,2.20
2022-10-05T08:41:03.028Z,2.17
2022-10-05T08:43:50.856Z,2.03
2022-10-05T08:46:41.459Z,1.83
2022-10-05T08:49:29.729Z,1.95
2022-10-05T08:52:17.196Z,1.98
2022-10-05T08:54:47.666Z,2.00
2022-10-05T08:57:26.713Z,1.77
2022-10-05T08:59:59.759Z,2.15
2022-10-05T09:02:43.675Z,1.90
2022-10-05T09:05:23.355Z,1.38
2022-10-05T09:08:20.773Z,1.50
2022-10-05T09:10:47.956Z,1.58
2022-10-05T09:13:18.789Z,1.48
2022-10-05T09:16:04.634Z,1.90
2022-10-05T09:19:04.090Z,1.67
2022-10-05T09:21:34.344Z,1.40
2022-10-05T09:24:07.551Z,1.80
2022-10-05T09:26:43.775Z,1.80
2022-10-05T09:29:11.032Z,1.95
2022-10-05T09:31:57.381Z,1.88
2022-10-05T09:34:43.610Z,1.80
2022-10-05T09:37:36.401Z,1.75
2022-10-05T09:40:06.711Z,1.88
2022-10-05T09:42:44.291Z,2.13
2022-10-05T09:45:20.392Z,1.90
2022-10-05T09:48:00.628Z,1.83
2022-10-05T09:50:46.136Z,1.98
2022-10-05T09:53:16.435Z,1.77
2022-10-05T09:55:43.730Z,2.22
2022-10-05T09:58:37.018Z,2.03
2022-10-05T10:01:29.300Z,2.30
2022-10-05T10:04:10.218Z,2.40
2022-10-05T10:06:40.439Z,2.20
2022-10-05T10:09:19.035Z,2.03
2022-10-05T10:11:49.666Z,2.20
2022-10-05T10:14:26.408Z,2.50
2022-10-05T10:17:12.123Z,2.20
2022-10-05T10:19:39.363Z,2.67
2022-10-05T10:22:09.464Z,2.03
2022-10-05T10:24:43.290Z,2.05
2022-10-05T10:27:33.755Z,1.95
2022-10-05T10:30:32.029Z,2.08
2022-10-05T10:33:11.366Z,2.22
2022-10-05T10:35:40.718Z,2.63
2022-10-05T10:38:07.964Z,2.30
2022-10-05T10:40:53.419Z,2.15
2022-10-05T10:43:22.329Z,2.10
2022-10-05T10:46:08.446Z,2.03
2022-10-05T10:48:41.623Z,1.75
2022-10-05T10:51:15.101Z,1.80
2022-10-05T10:54:03.615Z,2.10
2022-10-05T10:56:36.701Z,1.98
2022-10-05T10:59:03.975Z,2.30
2022-10-05T11:01:53.360Z,2.00
2022-10-05T11:04:20.631Z,1.95
2022-10-05T11:07:03.111Z,2.00
2022-10-05T11:09:39.465Z,2.40
2022-10-05T11:12:22.215Z,1.95
2022-10-05T11:14:55.490Z,1.58
2022-10-05T11:17:29.639Z,2.28
2022-10-05T11:20:04.037Z,2.08
2022-10-05T11:22:51.769Z,1.85
2022-10-05T11:25:19.033Z,1.73
2022-10-05T11:28:02.102Z,1.83
2022-10-05T11:30:41.421Z,2.20
2022-10-05T11:33:32.078Z,2.10
2022-10-05T11:36:25.870Z,1.52
2022-10-05T11:38:53.057Z,1.73
2022-10-05T11:41:23.340Z,1.67
2022-10-05T11:44:03.286Z,2.25
2022-10-05T11:46:46.208Z,1.48
2022-10-05T11:49:16.753Z,1.50
2022-10-05T11:52:04.730Z,1.80
2022-10-05T11:55:09.229Z,1.50
2022-10-05T11:57:37.861Z,1.60
2022-10-05T12:00:07.184Z,1.65
2022-10-05T12:02:44.520Z,1.63
2022-10-05T12:05:18.340Z,1.70
2022-10-05T12:07:57.242Z,1.63
2022-10-05T12:10:36.659Z,1.65
2022-10-05T12:13:15.822Z,2.05
2022-10-05T12:16:01.784Z,1.63
2022-10-05T12:18:32.601Z,1.67
2022-10-05T12:21:02.778Z,1.40
2022-10-05T12:23:37.339Z,1.83
2022-10-05T12:26:07.944Z,1.52
2022-10-05T12:28:49.946Z,1.25
2022-10-05T12:31:21.521Z,1.60
2022-10-05T12:34:03.556Z,1.65
2022-10-05T12:36:52.424Z,1.70
2022-10-05T12:39:30.850Z,1.45
2022-10-05T12:42:04.388Z,1.50
2022-10-05T12:44:50.031Z,1.90
2022-10-05T12:47:17.272Z,1.58
2022-10-05T12:49:50.727Z,1.50
2022-10-05T12:52:38.487Z,1.63
2022-10-05T12:55:17.582Z,1.65
2022-10-05T12:58:00.880Z,1.60
2022-10-05T13:00:28.976Z,1.88
2022-10-05T13:03:11.461Z,1.40
2022-10-05T13:05:44.810Z,1.90
2022-10-05T13:08:30.965Z,1.23
2022-10-05T13:11:04.964Z,1.70
2022-10-05T13:13:40.207Z,1.98
2022-10-05T13:16:17.879Z,1.60
2022-10-05T13:18:51.900Z,1.38
2022-10-05T13:21:26.743Z,1.30
2022-10-05T13:24:14.663Z,1.60
2022-10-05T13:26:44.605Z,1.05
2022-10-05T13:29:11.874Z,1.08
2022-10-05T13:31:46.919Z,1.20
2022-10-05T13:34:14.752Z,1.75
2022-10-05T13:36:51.182Z,1.20
2022-10-05T13:39:26.206Z,1.20
2022-10-05T13:41:56.419Z,1.60
2022-10-05T13:44:23.653Z,1.40
2022-10-05T13:46:56.149Z,1.50
2022-10-05T13:49:23.642Z,1.40
2022-10-05T13:51:55.931Z,1.50
2022-10-05T13:54:41.831Z,1.40
2022-10-05T13:57:12.213Z,1.20
2022-10-05T13:59:46.367Z,1.35
2022-10-05T14:02:18.327Z,1.60
2022-10-05T14:04:58.591Z,1.70
2022-10-05T14:07:31.914Z,1.77
2022-10-05T14:09:59.803Z,1.30
2022-10-05T14:12:28.352Z,1.30
2022-10-05T14:14:57.375Z,1.70
2022-10-05T14:17:33.924Z,1.40
2022-10-05T14:20:03.465Z,1.45
2022-10-05T14:22:30.770Z,1.70
2022-10-05T14:25:13.860Z,1.80
2022-10-05T14:27:53.037Z,1.40
2022-10-05T14:30:20.330Z,1.80
2022-10-05T14:33:06.181Z,1.95
2022-10-05T14:35:45.732Z,1.70
2022-10-05T14:38:25.734Z,1.40
2022-10-05T14:41:12.043Z,1.52
2022-10-05T14:43:39.536Z,1.52
2022-10-05T14:46:24.974Z,1.60
2022-10-05T14:49:13.854Z,1.77
2022-10-05T14:51:42.890Z,1.80
2022-10-05T14:54:23.127Z,1.83
2022-10-05T14:57:03.322Z,1.63
2022-10-05T14:59:46.838Z,1.33
2022-10-05T15:02:17.143Z,1.30
2022-10-05T15:05:04.501Z,1.52
2022-10-05T15:07:36.191Z,1.75
2022-10-05T15:10:07.629Z,1.60
2022-10-05T15:12:48.285Z,1.70
2022-10-05T15:15:25.676Z,2.00
2022-10-05T15:17:56.222Z,1.50
2022-10-05T15:20:30.808Z,1.80
2022-10-05T15:23:00.893Z,1.73
2022-10-05T15:25:41.986Z,2.10
2022-10-05T15:28:12.984Z,2.13
2022-10-05T15:31:16.354Z,2.20
2022-10-05T15:33:54.668Z,2.10
2022-10-05T15:36:21.869Z,2.03
2022-10-05T15:39:07.182Z,2.00
2022-10-05T15:41:37.483Z,2.20
2022-10-05T15:44:15.308Z,2.10
2022-10-05T15:46:58.223Z,2.10
2022-10-05T15:49:39.791Z,2.50
2022-10-05T15:52:11.365Z,11.82
2022-10-05T15:54:41.764Z,17.75
2022-10-05T15:57:12.216Z,13.25
2022-10-05T15:59:47.707Z,2.88
2022-10-05T16:02:20.379Z,2.53
2022-10-05T16:04:47.687Z,2.83
2022-10-05T16:07:43.716Z,2.47
2022-10-05T16:10:19.183Z,2.10
2022-10-05T16:12:55.432Z,2.30
2022-10-05T16:15:27.550Z,2.13
2022-10-05T16:17:54.740Z,1.98
2022-10-05T16:20:45.394Z,2.30
2022-10-05T16:23:31.290Z,2.22
2022-10-05T16:26:24.831Z,2.30
2022-10-05T16:28:58.134Z,2.85
2022-10-05T16:31:37.524Z,3.13
2022-10-05T16:34:10.791Z,3.28
2022-10-05T16:36:44.591Z,3.28
2022-10-05T16:39:30.541Z,2.65
2022-10-05T16:42:04.194Z,2.90
2022-10-05T16:44:49.968Z,2.95
2022-10-05T16:47:36.038Z,2.67
2022-10-05T16:50:09.423Z,2.95
2022-10-05T16:52:39.374Z,4.97
2022-10-05T16:55:14.078Z,4.00
2022-10-05T16:57:55.653Z,3.72
2022-10-05T17:00:23.870Z,2.70
2022-10-05T17:02:57.054Z,2.40
2022-10-05T17:05:38.678Z,3.13
2022-10-05T17:08:32.069Z,3.10
2022-10-05T17:11:19.600Z,2.45
2022-10-05T17:14:06.226Z,2.67
2022-10-05T17:16:48.571Z,3.70
2022-10-05T17:19:15.779Z,3.30
2022-10-05T17:21:45.982Z,3.42
2022-10-05T17:24:13.483Z,3.33
2022-10-05T17:26:46.540Z,2.70
2022-10-05T17:29:34.235Z,2.50
2022-10-05T17:32:07.722Z,2.25
2022-10-05T17:34:37.100Z,2.40
2022-10-05T17:37:16.637Z,2.55
2022-10-05T17:39:48.752Z,2.70
2022-10-05T17:42:29.245Z,2.53
2022-10-05T17:45:14.825Z,2.60
2022-10-05T17:47:59.297Z,2.17
2022-10-05T17:51:05.010Z,2.67
2022-10-05T17:54:05.956Z,2.55
2022-10-05T17:56:41.648Z,2.55
2022-10-05T17:59:09.214Z,3.03
2022-10-05T18:01:36.492Z,2.70
2022-10-05T18:04:24.003Z,2.45
2022-10-05T18:06:59.033Z,5.53
2022-10-05T18:09:27.256Z,5.72
2022-10-05T18:12:25.461Z,7.95
2022-10-05T18:15:08.153Z,8.88
2022-10-05T18:17:51.259Z,8.18
2022-10-05T18:20:27.751Z,7.90
2022-10-05T18:23:14.896Z,8.23
2022-10-05T18:26:01.451Z,9.10
2022-10-05T18:28:29.069Z,9.25
2022-10-05T18:30:59.776Z,8.32
2022-10-05T18:33:46.035Z,8.73
2022-10-05T18:36:38.024Z,8.13
2022-10-05T18:39:15.129Z,8.55
2022-10-05T18:41:55.044Z,8.68
2022-10-05T18:44:34.587Z,7.38
2022-10-05T18:47:26.671Z,7.50
2022-10-05T18:50:14.142Z,7.97
2022-10-05T18:52:41.543Z,7.47
2022-10-05T18:55:34.111Z,7.22
2022-10-05T18:58:16.611Z,7.22
2022-10-05T19:00:43.851Z,7.22
2022-10-05T19:03:18.339Z,5.40
2022-10-05T19:05:48.413Z,4.43
2022-10-05T19:08:35.916Z,4.85
2022-10-05T19:11:23.090Z,5.25
2022-10-05T19:14:08.915Z,4.20
2022-10-05T19:16:39.223Z,4.10
2022-10-05T19:19:06.407Z,3.80
2022-10-05T19:21:38.002Z,3.83
2022-10-05T19:24:17.465Z,3.28
2022-10-05T19:26:53.799Z,3.33
2022-10-05T19:29:22.634Z,4.75
2022-10-05T19:32:02.169Z,5.28
2022-10-05T19:34:54.671Z,5.28
2022-10-05T19:37:31.151Z,5.03
2022-10-05T19:40:07.246Z,6.70
2022-10-05T19:42:37.205Z,5.88
2022-10-05T19:45:18.880Z,6.03
2022-10-05T19:48:04.212Z,6.03
2022-10-05T19:50:33.661Z,6.38
2022-10-05T19:53:21.154Z,6.75
2022-10-05T19:55:48.350Z,6.30
2022-10-05T19:58:20.083Z,6.05
2022-10-05T20:00:54.787Z,5.95
2022-10-05T20:03:26.553Z,6.65
2022-10-05T20:06:11.834Z,5.82
2022-10-05T20:08:41.889Z,6.05
2022-10-05T20:11:14.158Z,6.43
2022-10-05T20:13:42.670Z,5.88
2022-10-05T20:16:34.746Z,6.13
2022-10-05T20:19:40.600Z,5.90
2022-10-05T20:22:24.044Z,6.25
2022-10-05T20:24:52.846Z,5.90
2022-10-05T20:27:39.044Z,6.13
2022-10-05T20:30:06.961Z,6.50
2022-10-05T20:32:34.320Z,5.95
2022-10-05T20:35:01.608Z,6.90
2022-10-05T20:37:28.845Z,6.10
2022-10-05T20:39:56.269Z,6.30
2022-10-05T20:42:23.885Z,5.68
2022-10-05T20:44:56.484Z,5.13
2022-10-05T20:47:24.298Z,5.38
2022-10-05T20:49:53.447Z,5.20
2022-10-05T20:52:21.137Z,5.22
2022-10-05T20:54:52.959Z,5.80
2022-10-05T20:57:21.354Z,4.68
2022-10-05T20:59:48.598Z,4.22
2022-10-05T21:02:15.849Z,4.90
2022-10-05T21:04:47.543Z,4.18
2022-10-05T21:07:19.712Z,4.60
2022-10-05T21:09:46.988Z,4.05
2022-10-05T21:12:16.199Z,3.80
2022-10-05T21:14:43.499Z,3.83
2022-10-05T21:17:12.011Z,4.20
2022-10-05T21:19:39.479Z,3.60
2022-10-05T21:22:10.052Z,4.10
2022-10-05T21:24:37.956Z,3.78
2022-10-05T21:27:05.592Z,3.85
2022-10-05T21:29:34.259Z,4.18
2022-10-05T21:32:01.611Z,4.15
2022-10-05T21:34:29.024Z,3.55
2022-10-05T21:36:56.470Z,4.38
2022-10-05T21:39:24.808Z,4.10
2022-10-05T21:41:52.086Z,4.53
2022-10-05T21:44:19.406Z,5.28
2022-10-05T21:46:47.069Z,5.00
2022-10-05T21:49:19.497Z,5.32
2022-10-05T21:51:47.293Z,5.25
2022-10-05T21:54:19.252Z,5.60
2022-10-05T21:56:51.348Z,4.68
2022-10-05T21:59:20.409Z,4.38
2022-10-05T22:01:47.740Z,4.15
2022-10-05T22:04:15.213Z,3.80
2022-10-05T22:06:42.655Z,4.20
2022-10-05T22:09:10.397Z,3.65
2022-10-05T22:11:38.938Z,3.40
2022-10-05T22:14:06.298Z,3.20
2022-10-05T22:16:35.498Z,3.70
2022-10-05T22:19:06.598Z,3.58
2022-10-05T22:21:38.264Z,4.00
2022-10-05T22:24:05.657Z,3.33
2022-10-05T22:26:33.388Z,3.67
2022-10-05T22:29:01.802Z,3.22
2022-10-05T22:31:29.117Z,3.40
2022-10-05T22:33:56.801Z,3.45
2022-10-05T22:36:24.097Z,3.38
2022-10-05T22:38:51.355Z,2.83
2022-10-05T22:41:18.659Z,3.70
2022-10-05T22:43:50.215Z,2.90
2022-10-05T22:46:17.964Z,3.03
2022-10-05T22:48:45.354Z,3.10
2022-10-05T22:51:12.689Z,3.45
2022-10-05T22:53:39.922Z,3.13
2022-10-05T22:56:07.123Z,2.90
2022-10-05T22:58:34.428Z,2.65
2022-10-05T23:01:03.689Z,3.75
2022-10-05T23:03:31.447Z,3.50
2022-10-05T23:06:00.182Z,3.60
2022-10-05T23:08:27.845Z,2.72
2022-10-05T23:10:55.359Z,3.03
2022-10-05T23:13:22.653Z,3.00
2022-10-05T23:15:49.997Z,3.40
2022-10-05T23:18:17.228Z,3.20
2022-10-05T23:20:44.440Z,2.85
2022-10-05T23:23:11.705Z,2.88
2022-10-05T23:25:38.955Z,3.60
2022-10-05T23:28:06.657Z,2.95
2022-10-05T23:30:33.938Z,3.35
2022-10-05T23:33:01.203Z,3.67
2022-10-05T23:35:28.458Z,3.40
2022-10-05T23:37:55.658Z,3.30
2022-10-05T23:40:23.125Z,3.70
2022-10-05T23:42:50.615Z,3.22
2022-10-05T23:45:17.926Z,3.10
2022-10-05T23:47:46.797Z,3.38
2022-10-05T23:50:14.089Z,3.55
2022-10-05T23:52:41.282Z,3.75
2022-10-05T23:55:08.631Z,2.75
2022-10-05T23:57:35.873Z,2.92
